createdAt,value
2018-08-27T00:00:23.587Z,97013.34
2018-08-27T00:02:52.685Z,97001.46
2018-08-27T00:05:22.132Z,96999.73
2018-08-27T00:07:51.321Z,97008.14
2018-08-27T00:10:20.537Z,97004.77
2018-08-27T00:12:49.688Z,97001.36
2018-08-27T00:15:18.821Z,97004.70
2018-08-27T00:17:47.925Z,97001.72
2018-08-27T00:20:17.249Z,97002.98
2018-08-27T00:22:46.843Z,97004.70
2018-08-27T00:25:16.149Z,96996.23
2018-08-27T00:27:45.553Z,96987.75
2018-08-27T00:30:14.735Z,96987.72
2018-08-27T00:32:44.060Z,96986.44
2018-08-27T00:35:13.278Z,96985.58
2018-08-27T00:37:42.449Z,96988.54
2018-08-27T00:40:11.561Z,96985.19
2018-08-27T00:42:40.765Z,96981.78
2018-08-27T00:45:11.583Z,96978.38
2018-08-27T00:47:40.853Z,96975.83
2018-08-27T00:50:10.033Z,96983.43
2018-08-27T00:52:39.130Z,96983.36
2018-08-27T00:55:08.283Z,96985.02
2018-08-27T00:57:38.325Z,96985.77
2018-08-27T01:00:08.221Z,96978.48
2018-08-27T01:02:38.407Z,96982.27
2018-08-27T01:05:07.929Z,96977.59
2018-08-27T01:23:14.920Z,96990.48
2018-08-27T01:25:44.053Z,96991.34
2018-08-27T01:28:13.181Z,96997.26
2018-08-27T01:30:42.337Z,96991.73
2018-08-27T01:33:11.568Z,97003.54
2018-08-27T01:35:43.236Z,97012.39
2018-08-27T01:38:12.453Z,97016.98
2018-08-27T01:40:41.770Z,97015.61
2018-08-27T01:43:10.965Z,97017.26
2018-08-27T01:45:40.974Z,97016.83
2018-08-27T01:48:10.032Z,97018.89
2018-08-27T01:50:39.050Z,97014.60
2018-08-27T01:53:08.159Z,97012.95
2018-08-27T01:55:38.267Z,97000.66
2018-08-27T01:58:08.425Z,97001.14
2018-08-27T02:00:38.271Z,96997.80
2018-08-27T02:03:08.402Z,96997.83
2018-08-27T02:05:38.198Z,96994.33
2018-08-27T02:08:07.266Z,97000.26
2018-08-27T02:10:36.340Z,97006.20
2018-08-27T02:13:05.409Z,97014.20
2018-08-27T02:15:34.516Z,97014.67
2018-08-27T02:18:03.574Z,97002.09
2018-08-27T02:20:32.661Z,97000.45
2018-08-27T02:23:01.715Z,96992.86
2018-08-27T02:25:30.719Z,96989.44
2018-08-27T02:27:59.750Z,96996.98
2018-08-27T02:30:28.794Z,96997.02
2018-08-27T02:32:57.874Z,96998.31
2018-08-27T02:35:27.147Z,97002.92
2018-08-27T02:37:56.218Z,97010.74
2018-08-27T02:40:25.356Z,97006.69
2018-08-27T02:42:54.634Z,97001.05
2018-08-27T02:45:23.684Z,97006.05
2018-08-27T02:47:52.730Z,96997.16
2018-08-27T02:50:21.735Z,97002.22
2018-08-27T02:52:50.770Z,97001.79
2018-08-27T02:55:19.830Z,96998.41
2018-08-27T02:57:48.878Z,97003.06
2018-08-27T03:00:17.959Z,97004.75
2018-08-27T03:02:47.061Z,97003.88
2018-08-27T03:05:16.631Z,97006.41
2018-08-27T03:07:45.807Z,97003.84
2018-08-27T03:10:14.857Z,96996.23
2018-08-27T03:12:43.966Z,96996.25
2018-08-27T03:15:13.046Z,96989.52
2018-08-27T03:17:42.122Z,96994.59
2018-08-27T03:20:11.279Z,96998.78
2018-08-27T03:22:40.505Z,96989.45
2018-08-27T03:25:09.566Z,96995.36
2018-08-27T03:27:38.958Z,96983.93
2018-08-27T03:30:09.086Z,96993.19
2018-08-27T03:32:38.994Z,96986.78
2018-08-27T03:35:08.937Z,96985.84
2018-08-27T03:37:38.976Z,96980.73
2018-08-27T03:40:09.083Z,96980.67
2018-08-27T03:42:38.141Z,96975.58
2018-08-27T03:45:07.271Z,96990.58
2018-08-27T03:47:36.331Z,96989.69
2018-08-27T03:50:05.401Z,96992.27
2018-08-27T03:52:34.498Z,96994.42
2018-08-27T03:55:03.607Z,96994.03
2018-08-27T03:57:32.676Z,96994.06
2018-08-27T04:00:01.759Z,96994.91
2018-08-27T04:02:30.846Z,96998.32
2018-08-27T04:04:59.931Z,96999.13
2018-08-27T04:07:29.023Z,97003.31
2018-08-27T04:09:58.104Z,96999.09
2018-08-27T04:12:27.174Z,97001.59
2018-08-27T04:14:56.224Z,97003.27
2018-08-27T04:17:32.472Z,97004.12
2018-08-27T04:20:03.491Z,97009.97
2018-08-27T04:22:32.555Z,97009.56
2018-08-27T04:25:01.603Z,97011.17
2018-08-27T04:27:30.678Z,97009.34
2018-08-27T04:29:59.787Z,97013.95
2018-08-27T04:32:28.949Z,97010.53
2018-08-27T04:34:58.139Z,97005.85
2018-08-27T04:37:27.181Z,97012.17
2018-08-27T04:39:56.326Z,97009.12
2018-08-27T04:42:25.335Z,97010.41
2018-08-27T04:44:54.415Z,97014.70
2018-08-27T04:47:23.480Z,97010.14
2018-08-27T04:49:52.509Z,97011.05
2018-08-27T04:52:21.517Z,97007.28
2018-08-27T04:54:50.623Z,97003.13
2018-08-27T04:57:19.652Z,97003.98
2018-08-27T04:59:51.517Z,97003.16
2018-08-27T05:02:20.593Z,97001.59
2018-08-27T05:04:49.643Z,97000.78
2018-08-27T05:07:18.708Z,97004.27
2018-08-27T05:09:47.805Z,97003.52
2018-08-27T05:12:16.867Z,97009.94
2018-08-27T05:14:45.916Z,97003.66
2018-08-27T05:17:15.208Z,96999.33
2018-08-27T05:19:44.253Z,96995.05
2018-08-27T05:22:13.278Z,97007.66
2018-08-27T05:24:42.395Z,97010.86
2018-08-27T05:27:11.571Z,97022.45
2018-08-27T05:29:40.625Z,97010.07
2018-08-27T05:32:10.006Z,97021.21
2018-08-27T05:34:39.961Z,97022.23
2018-08-27T05:37:09.034Z,97020.56
2018-08-27T05:39:38.110Z,97021.08
2018-08-27T05:42:07.185Z,97023.80
2018-08-27T05:44:36.398Z,97022.64
2018-08-27T05:47:05.417Z,97023.91
2018-08-27T05:49:34.477Z,97025.24
2018-08-27T05:52:03.610Z,97024.45
2018-08-27T05:54:32.651Z,97017.86
2018-08-27T05:57:01.761Z,97025.56
2018-08-27T05:59:30.855Z,97025.28
2018-08-27T06:01:59.923Z,97019.91
2018-08-27T06:04:28.995Z,97014.92
2018-08-27T06:06:58.047Z,97020.09
2018-08-27T06:09:27.123Z,97018.48
2018-08-27T06:11:56.221Z,97015.64
2018-08-27T06:14:25.355Z,97013.20
2018-08-27T06:16:54.546Z,97022.17
2018-08-27T06:19:23.637Z,97022.18
2018-08-27T06:21:52.738Z,97029.84
2018-08-27T06:24:21.759Z,97022.30
2018-08-27T06:26:50.794Z,97018.98
2018-08-27T06:29:19.901Z,97024.95
2018-08-27T06:31:48.955Z,97019.87
2018-08-27T06:34:18.009Z,97016.95
2018-08-27T06:36:47.085Z,97010.67
2018-08-27T06:39:16.145Z,97009.06
2018-08-27T06:41:45.185Z,97011.60
2018-08-27T06:44:14.271Z,97015.02
2018-08-27T06:46:43.369Z,97017.63
2018-08-27T06:49:12.454Z,97015.99
2018-08-27T06:51:41.586Z,97020.27
2018-08-27T06:54:10.748Z,97016.92
2018-08-27T06:56:40.936Z,97015.25
2018-08-27T06:59:10.795Z,97018.69
2018-08-27T07:01:40.814Z,97016.70
2018-08-27T07:04:10.717Z,97017.62
2018-08-27T07:06:40.786Z,97015.59
2018-08-27T07:09:11.494Z,97026.23
2018-08-27T07:11:40.932Z,97019.05
2018-08-27T07:14:11.042Z,97017.83
2018-08-27T07:16:41.092Z,97024.64
2018-08-27T07:19:11.023Z,97014.88
2018-08-27T07:21:41.522Z,97011.52
2018-08-27T07:24:10.918Z,97005.19
2018-08-27T07:26:40.962Z,97011.58
2018-08-27T07:29:11.117Z,97012.47
2018-08-27T07:31:41.145Z,97009.10
2018-08-27T07:34:11.114Z,97008.27
2018-08-27T07:36:41.334Z,97014.23
2018-08-27T07:39:11.724Z,97017.63
2018-08-27T07:41:41.440Z,97025.31
2018-08-27T07:44:11.190Z,97031.28
2018-08-27T07:46:41.272Z,97030.88
2018-08-27T07:49:11.394Z,97028.75
2018-08-27T07:51:41.290Z,97018.56
2018-08-27T07:54:11.343Z,97013.45
2018-08-27T07:56:41.413Z,97015.57
2018-08-27T07:59:11.430Z,97012.58
2018-08-27T08:01:41.311Z,97004.08
2018-08-27T08:04:10.348Z,97005.73
2018-08-27T08:06:39.433Z,97017.61
2018-08-27T08:09:10.304Z,97021.84
2018-08-27T08:11:39.409Z,97018.42
2018-08-27T08:14:08.518Z,97018.85
2018-08-27T08:16:37.574Z,97017.57
2018-08-27T08:19:06.706Z,97020.95
2018-08-27T08:21:35.810Z,97014.92
2018-08-27T08:24:04.908Z,97027.21
2018-08-27T08:26:34.030Z,97016.56
2018-08-27T08:29:03.122Z,97016.52
2018-08-27T08:31:32.231Z,97015.59
2018-08-27T08:34:01.389Z,97017.66
2018-08-27T08:36:31.190Z,97017.13
2018-08-27T08:39:00.363Z,97018.72
2018-08-27T08:41:29.443Z,97015.69
2018-08-27T08:43:58.522Z,97019.45
2018-08-27T08:46:27.598Z,97009.95
2018-08-27T08:48:56.698Z,97003.52
2018-08-27T08:51:25.827Z,97003.03
2018-08-27T08:53:54.890Z,96997.00
2018-08-27T08:56:24.011Z,97000.37
2018-08-27T08:58:53.085Z,96995.09
2018-08-27T09:01:22.256Z,96992.81
2018-08-27T09:03:51.282Z,96988.89
2018-08-27T09:06:20.470Z,96988.78
2018-08-27T09:08:49.506Z,96986.89
2018-08-27T09:11:18.540Z,96994.43
2018-08-27T09:13:47.789Z,96987.94
2018-08-27T09:16:16.938Z,96984.75
2018-08-27T09:18:45.951Z,96982.00
2018-08-27T09:21:15.075Z,96987.00
2018-08-27T09:23:44.289Z,96980.96
2018-08-27T09:26:13.383Z,96979.09
2018-08-27T09:28:42.573Z,96973.83
2018-08-27T09:31:12.171Z,96965.47
2018-08-27T10:00:04.706Z,96952.97
2018-08-27T10:02:34.377Z,96949.29
2018-08-27T10:05:03.612Z,96940.27
2018-08-27T10:07:33.156Z,96937.94
2018-08-27T10:10:02.393Z,96935.17
2018-08-27T10:12:33.765Z,96933.41
2018-08-27T10:15:02.937Z,96933.25
2018-08-27T10:17:32.531Z,96928.52
2018-08-27T10:20:01.719Z,96917.33
2018-08-27T10:22:30.853Z,96921.61
2018-08-27T10:24:59.967Z,96924.91
2018-08-27T10:27:29.117Z,96917.11
2018-08-27T10:29:58.297Z,96916.21
2018-08-27T10:32:27.400Z,96909.91
2018-08-27T10:34:56.505Z,96916.48
2018-08-27T10:37:25.655Z,96914.48
2018-08-27T10:39:54.726Z,96907.53
2018-08-27T10:42:23.864Z,96905.58
2018-08-27T10:44:52.999Z,96906.05
2018-08-27T10:47:22.069Z,96902.43
2018-08-27T10:49:51.203Z,96902.43
2018-08-27T10:52:20.399Z,96899.13
2018-08-27T10:54:49.477Z,96890.63
2018-08-27T10:57:18.589Z,96889.28
2018-08-27T10:59:48.038Z,96889.86
2018-08-27T11:02:17.116Z,96896.81
2018-08-27T11:04:46.214Z,96896.33
2018-08-27T11:07:15.315Z,96897.03
2018-08-27T11:09:44.410Z,96889.98
2018-08-27T11:12:13.486Z,96894.23
2018-08-27T11:14:43.273Z,96884.61
2018-08-27T11:17:13.510Z,96885.31
2018-08-27T11:19:43.416Z,96879.39
2018-08-27T11:22:13.611Z,96852.29
2018-08-27T11:24:43.365Z,96883.08
2018-08-27T11:27:13.400Z,96889.95
2018-08-27T11:29:43.383Z,96881.92
2018-08-27T11:32:13.506Z,96879.55
2018-08-27T11:34:43.703Z,96881.44
2018-08-27T11:37:13.613Z,96891.66
2018-08-27T11:39:43.506Z,96878.69
2018-08-27T11:42:13.537Z,96881.10
2018-08-27T11:44:44.774Z,96867.88
2018-08-27T11:47:14.653Z,96870.89
2018-08-27T11:49:44.016Z,96872.68
2018-08-27T11:52:13.693Z,96861.53
2018-08-27T11:54:43.648Z,96869.94
2018-08-27T11:57:14.632Z,96867.52
2018-08-27T11:59:43.798Z,96873.48
2018-08-27T12:02:13.813Z,96874.27
2018-08-27T12:04:44.675Z,96863.84
2018-08-27T12:07:13.743Z,96871.06
2018-08-27T12:09:43.866Z,96869.77
2018-08-27T12:12:13.881Z,96872.33
2018-08-27T12:14:43.945Z,96867.19
2018-08-27T12:17:14.272Z,96860.80
2018-08-27T12:19:44.142Z,96870.66
2018-08-27T12:22:13.880Z,96862.97
2018-08-27T12:24:44.035Z,96864.83
2018-08-27T12:27:13.914Z,96856.98
2018-08-27T12:29:44.045Z,96859.59
2018-08-27T12:32:13.900Z,96848.51
2018-08-27T12:34:43.993Z,96846.56
2018-08-27T12:37:13.983Z,96846.05
2018-08-27T12:39:44.130Z,96853.95
2018-08-27T12:42:14.040Z,96843.47
2018-08-27T12:44:44.225Z,96845.53
2018-08-27T12:47:14.586Z,96846.63
2018-08-27T12:49:44.297Z,96843.39
2018-08-27T12:52:14.416Z,96840.15
2018-08-27T12:54:44.143Z,96838.73
2018-08-27T12:57:13.218Z,96837.28
2018-08-27T12:59:42.798Z,96837.25
2018-08-27T13:02:12.314Z,96838.29
2018-08-27T13:04:41.369Z,96834.66
2018-08-27T13:07:10.444Z,96844.52
2018-08-27T13:09:39.536Z,96836.44
2018-08-27T13:12:08.714Z,96840.36
2018-08-27T13:14:37.762Z,96840.77
2018-08-27T13:17:06.840Z,96831.52
2018-08-27T13:19:35.942Z,96830.67
2018-08-27T13:22:05.405Z,96833.77
2018-08-27T13:24:34.626Z,96830.66
2018-08-27T13:27:03.742Z,96835.92
2018-08-27T13:29:32.865Z,96841.69
2018-08-27T13:32:02.743Z,96835.70
2018-08-27T13:34:31.805Z,96839.58
2018-08-27T13:37:01.221Z,96836.92
2018-08-27T13:39:30.311Z,96834.33
2018-08-27T13:41:59.494Z,96836.94
2018-08-27T13:44:28.589Z,96839.73
2018-08-27T13:46:57.673Z,96834.80
2018-08-27T13:49:26.814Z,96836.25
2018-08-27T13:52:01.063Z,96838.69
2018-08-27T13:54:30.510Z,96839.04
2018-08-27T13:57:00.019Z,96836.02
2018-08-27T13:59:29.117Z,96828.64
2018-08-27T14:01:58.671Z,96814.89
2018-08-27T14:04:27.750Z,96825.09
2018-08-27T14:06:56.937Z,96831.80
2018-08-27T14:09:26.057Z,96835.00
2018-08-27T14:11:55.142Z,96831.92
2018-08-27T14:14:24.209Z,96832.38
2018-08-27T14:16:53.305Z,96836.34
2018-08-27T14:19:22.608Z,96838.09
2018-08-27T14:21:51.671Z,96840.27
2018-08-27T14:24:20.685Z,96831.36
2018-08-27T14:26:49.759Z,96833.34
2018-08-27T14:29:18.863Z,96832.92
2018-08-27T14:31:47.979Z,96830.25
2018-08-27T14:34:17.050Z,96832.69
2018-08-27T14:36:46.146Z,96829.82
2018-08-27T14:39:15.289Z,96832.78
2018-08-27T14:41:45.208Z,96832.41
2018-08-27T14:44:14.333Z,96835.94
2018-08-27T14:46:43.383Z,96827.22
2018-08-27T14:49:12.471Z,96836.72
2018-08-27T14:51:41.576Z,96838.31
2018-08-27T14:54:10.676Z,96836.58
2018-08-27T14:56:39.892Z,96837.97
2018-08-27T14:59:09.083Z,96827.69
2018-08-27T15:01:39.070Z,96831.39
2018-08-27T15:04:08.464Z,96825.15
2018-08-27T15:06:38.352Z,96826.43
2018-08-27T15:09:08.368Z,96827.48
2018-08-27T15:11:37.524Z,96829.30
2018-08-27T15:14:06.736Z,96829.77
2018-08-27T15:16:36.041Z,96830.92
2018-08-27T15:19:05.155Z,96831.64
2018-08-27T15:21:34.290Z,96833.78
2018-08-27T15:24:03.425Z,96832.91
2018-08-27T15:26:32.518Z,96827.62
2018-08-27T15:29:01.692Z,96831.37
2018-08-27T15:31:30.768Z,96835.78
2018-08-27T15:33:59.841Z,96838.02
2018-08-27T15:36:28.923Z,96827.48
2018-08-27T15:38:58.057Z,96834.92
2018-08-27T15:41:27.179Z,96835.92
2018-08-27T15:43:56.278Z,96835.47
2018-08-27T15:46:30.519Z,96839.83
2018-08-27T15:48:59.640Z,96838.23
2018-08-27T15:51:28.821Z,96837.75
2018-08-27T15:53:57.841Z,96839.15
2018-08-27T15:56:26.951Z,96838.81
2018-08-27T15:58:56.112Z,96846.45
2018-08-27T16:01:25.233Z,96843.93
2018-08-27T16:03:54.319Z,96843.32
2018-08-27T16:06:23.350Z,96849.20
2018-08-27T16:08:55.382Z,96850.70
2018-08-27T16:11:24.488Z,96845.08
2018-08-27T16:13:53.503Z,96847.73
2018-08-27T16:16:22.594Z,96857.53
2018-08-27T16:18:51.725Z,96862.09
2018-08-27T16:21:20.956Z,96859.61
2018-08-27T16:23:50.011Z,96855.35
2018-08-27T16:26:19.104Z,96852.06
2018-08-27T16:28:48.183Z,96858.91
2018-08-27T16:31:17.285Z,96859.13
2018-08-27T16:33:47.281Z,96855.66
2018-08-27T16:36:17.138Z,96856.58
2018-08-27T16:38:46.701Z,96853.58
2018-08-27T16:41:16.687Z,96851.91
2018-08-27T16:43:46.939Z,96855.56
2018-08-27T16:46:17.491Z,96850.27
2018-08-27T16:48:46.665Z,96844.17
2018-08-27T16:51:15.776Z,96849.98
2018-08-27T16:53:44.845Z,96853.16
2018-08-27T16:56:14.219Z,96853.31
2018-08-27T16:58:43.263Z,96857.29
2018-08-27T17:01:12.403Z,96861.58
2018-08-27T17:03:41.467Z,96861.58
2018-08-27T17:06:10.591Z,96862.53
2018-08-27T17:08:39.655Z,96862.05
2018-08-27T17:11:08.813Z,96859.82
2018-08-27T17:13:37.940Z,96858.28
2018-08-27T17:16:07.017Z,96857.23
2018-08-27T17:18:36.145Z,96854.91
2018-08-27T17:21:06.389Z,96829.77
2018-08-27T17:23:35.490Z,96856.70
2018-08-27T17:26:04.554Z,96866.77
2018-08-27T17:28:33.647Z,96870.06
2018-08-27T17:31:02.804Z,96878.10
2018-08-27T17:33:31.997Z,96885.38
2018-08-27T17:36:01.091Z,96889.23
2018-08-27T17:38:30.256Z,96883.48
2018-08-27T17:40:59.425Z,96884.52
2018-08-27T17:43:29.419Z,96884.06
2018-08-27T17:45:58.529Z,96892.69
2018-08-27T17:48:27.609Z,96889.44
2018-08-27T17:50:57.149Z,96892.34
2018-08-27T17:53:26.280Z,96898.52
2018-08-27T17:55:55.386Z,96907.73
2018-08-27T17:58:24.577Z,96912.28
2018-08-27T18:00:53.779Z,96919.75
2018-08-27T18:03:22.909Z,96916.52
2018-08-27T18:05:52.040Z,96915.83
2018-08-27T18:08:21.243Z,96922.89
2018-08-27T18:10:50.448Z,96923.01
2018-08-27T18:13:19.546Z,96931.74
2018-08-27T18:15:48.661Z,96932.62
2018-08-27T18:18:17.743Z,96940.89
2018-08-27T18:20:47.546Z,96939.67
2018-08-27T18:23:17.663Z,96944.04
2018-08-27T18:25:47.565Z,96941.19
2018-08-27T18:28:17.774Z,96947.22
2018-08-27T18:30:47.617Z,96953.67
2018-08-27T18:33:17.828Z,96953.73
2018-08-27T18:35:47.600Z,96953.09
2018-08-27T18:38:17.768Z,96963.42
2018-08-27T18:41:18.460Z,96962.62
2018-08-27T18:43:47.747Z,96969.56
2018-08-27T18:46:17.668Z,96960.27
2018-08-27T18:48:49.055Z,96969.84
2018-08-27T18:51:18.167Z,96973.51
2018-08-27T18:53:47.779Z,96972.88
2018-08-27T18:56:17.824Z,96968.00
2018-08-27T18:58:47.892Z,96969.41
2018-08-27T19:01:18.076Z,96977.69
2018-08-27T19:03:48.136Z,96977.79
2018-08-27T19:06:17.910Z,96980.95
2018-08-27T19:08:53.358Z,96986.66
2018-08-27T19:11:22.652Z,96988.05
2018-08-27T19:13:53.724Z,96993.70
2018-08-27T19:16:23.649Z,96988.73
2018-08-27T19:18:52.903Z,96990.57
2018-08-27T19:21:23.178Z,96997.50
2018-08-27T19:23:52.607Z,96992.44
2018-08-27T19:26:21.906Z,96999.37
2018-08-27T19:28:51.449Z,96998.17
2018-08-27T19:31:20.702Z,97003.33
2018-08-27T19:33:49.899Z,97007.24
2018-08-27T19:36:19.489Z,97006.39
2018-08-27T19:38:49.344Z,96993.28
2018-08-27T19:41:18.766Z,97006.88
2018-08-27T19:43:48.469Z,97006.06
2018-08-27T19:46:19.456Z,97004.87
2018-08-27T19:48:48.706Z,97009.70
2018-08-27T19:51:18.637Z,97006.78
2018-08-27T19:53:48.516Z,97011.56
2018-08-27T19:56:18.473Z,97010.70
2018-08-27T19:58:48.638Z,97009.12
2018-08-27T20:01:18.538Z,97010.42
2018-08-27T20:03:48.618Z,97017.77
2018-08-27T20:06:18.497Z,97017.38
2018-08-27T20:08:48.797Z,97014.44
2018-08-27T20:11:18.500Z,97024.30
2018-08-27T20:13:48.499Z,97024.33
2018-08-27T20:16:18.717Z,97031.75
2018-08-27T20:18:48.533Z,97035.67
2018-08-27T20:21:18.606Z,97036.23
2018-08-27T20:23:48.657Z,97035.52
2018-08-27T20:26:18.651Z,97041.14
2018-08-27T20:28:48.686Z,97045.53
2018-08-27T20:31:18.880Z,97041.38
2018-08-27T20:33:48.708Z,97041.45
2018-08-27T20:36:19.170Z,97038.97
2018-08-27T20:38:49.049Z,97042.89
2018-08-27T20:41:18.854Z,97044.26
2018-08-27T20:43:48.740Z,97046.02
2018-08-27T20:46:18.962Z,97055.92
2018-08-27T20:48:49.091Z,97045.20
2018-08-27T20:51:18.890Z,97048.68
2018-08-27T20:53:49.098Z,97048.00
2018-08-27T20:56:18.991Z,97058.25
2018-08-27T20:58:48.934Z,97057.39
2018-08-27T21:01:19.026Z,97065.16
2018-08-27T21:03:49.090Z,97061.77
2018-08-27T21:06:18.975Z,97060.91
2018-08-27T21:08:49.013Z,97061.81
2018-08-27T21:11:19.075Z,97066.18
2018-08-27T21:13:49.184Z,97066.18
2018-08-27T21:16:19.140Z,97067.94
2018-08-27T21:18:49.100Z,97058.59
2018-08-27T21:21:19.121Z,97061.13
2018-08-27T21:23:48.250Z,97063.73
2018-08-27T21:26:17.367Z,97068.88
2018-08-27T21:28:46.443Z,97073.13
2018-08-27T21:31:15.550Z,97074.92
2018-08-27T21:33:44.578Z,97076.60
2018-08-27T21:36:13.636Z,97092.86
2018-08-27T21:38:42.682Z,97088.56
2018-08-27T21:41:11.738Z,97086.00
2018-08-27T21:43:40.793Z,97088.18
2018-08-27T21:46:09.907Z,97087.75
2018-08-27T21:48:39.016Z,97087.79
2018-08-27T21:51:08.079Z,97092.52
2018-08-27T21:53:37.145Z,97090.41
2018-08-27T21:56:06.167Z,97093.06
2018-08-27T21:58:35.275Z,97097.78
2018-08-27T22:01:04.437Z,97099.15
2018-08-27T22:03:38.722Z,97102.61
2018-08-27T22:06:07.745Z,97108.62
2018-08-27T22:08:36.824Z,97110.38
2018-08-27T22:11:05.899Z,97113.03
2018-08-27T22:13:34.923Z,97110.06
2018-08-27T22:16:03.978Z,97106.22
2018-08-27T22:18:33.038Z,97110.07
2018-08-27T22:21:02.117Z,97107.97
2018-08-27T22:23:31.154Z,97108.47
2018-08-27T22:26:00.204Z,97111.05
2018-08-27T22:28:29.274Z,97112.33
2018-08-27T22:30:58.316Z,97120.91
2018-08-27T22:33:27.377Z,97123.91
2018-08-27T22:35:56.406Z,97123.91
2018-08-27T22:38:25.486Z,97126.05
2018-08-27T22:40:54.536Z,97130.80
2018-08-27T22:43:23.626Z,97135.52
2018-08-27T22:45:52.658Z,97131.30
2018-08-27T22:48:21.673Z,97134.73
2018-08-27T22:50:50.711Z,97138.23
2018-08-27T22:53:20.409Z,97136.13
2018-08-27T22:55:50.241Z,97141.78
2018-08-27T22:58:20.299Z,97141.00
2018-08-27T23:00:50.315Z,97151.31
2018-08-27T23:03:24.540Z,97152.21
2018-08-27T23:05:53.581Z,97149.67
2018-08-27T23:08:22.645Z,97149.71
2018-08-27T23:10:51.701Z,97152.31
2018-08-27T23:13:20.749Z,97153.61
2018-08-27T23:15:50.515Z,97150.67
2018-08-27T23:18:20.593Z,97150.70
2018-08-27T23:20:49.633Z,97153.74
2018-08-27T23:23:18.726Z,97152.45
2018-08-27T23:25:47.773Z,97153.28
2018-08-27T23:28:16.773Z,97143.46
2018-08-27T23:30:45.841Z,97153.31
2018-08-27T23:33:14.910Z,97148.17
2018-08-27T23:35:44.022Z,97155.03
2018-08-27T23:38:13.081Z,97155.03
2018-08-27T23:40:42.130Z,97153.28
2018-08-27T23:43:11.189Z,97159.67
2018-08-27T23:45:40.202Z,97163.50
2018-08-27T23:48:09.252Z,97166.45
2018-08-27T23:50:38.293Z,97160.95
2018-08-27T23:53:07.411Z,97169.56
2018-08-27T23:55:36.449Z,97165.31
2018-08-27T23:58:05.520Z,97170.45
